Time;durP1;ratioP1;P1;durP2;ratioP2;P2;SDS_P1;SDS_P2;PMS_P1;PMS_P2;Temp;Humidity;BMP_temperature;BMP_pressure;BME280_temperature;BME280_humidity;BME280_pressure;Samples;Min_cycle;Max_cycle;Signal;HPM_P1;HPM_P2
2021/11/04 00:00:57;;;;;;;2.83;1.77;;;13.50;99.90;;;;;;5011514;28;20350;-92
2021/11/04 00:03:30;;;;;;;3.50;2.00;;;13.50;99.90;;;;;;5008598;28;20218;-93
2021/11/04 00:06:02;;;;;;;3.50;1.93;;;13.40;99.90;;;;;;4979928;28;20218;-93
2021/11/04 00:08:41;;;;;;;3.57;2.30;;;13.30;99.90;;;;;;4989970;28;20216;-92
2021/11/04 00:11:15;;;;;;;4.70;2.00;;;13.30;99.90;;;;;;4991385;28;20211;-93
2021/11/04 00:13:47;;;;;;;4.27;2.00;;;13.20;99.90;;;;;;4979731;28;20221;-93
2021/11/04 00:16:19;;;;;;;4.53;2.07;;;13.10;99.90;;;;;;4994392;28;20255;-94
2021/11/04 00:18:51;;;;;;;4.63;1.83;;;13.10;99.90;;;;;;4990587;28;20222;-92
2021/11/04 00:21:27;;;;;;;4.23;2.10;;;13.20;99.90;;;;;;4991559;28;20234;-92
2021/11/04 00:24:03;;;;;;;4.07;1.97;;;13.20;99.90;;;;;;5003687;28;20205;-92
2021/11/04 00:26:37;;;;;;;3.33;2.67;;;13.20;99.90;;;;;;4995022;28;20226;-92
2021/11/04 00:29:09;;;;;;;4.83;2.30;;;13.20;99.90;;;;;;4994708;28;20313;-92
2021/11/04 00:31:41;;;;;;;2.50;1.90;;;13.20;99.90;;;;;;4994999;28;20222;-93
2021/11/04 00:34:13;;;;;;;4.60;2.20;;;13.10;99.90;;;;;;5010382;28;20210;-90
2021/11/04 00:36:45;;;;;;;3.13;2.40;;;13.10;99.90;;;;;;5011319;28;20295;-93
2021/11/04 00:39:19;;;;;;;4.27;1.90;;;13.10;99.90;;;;;;4999764;28;20211;-93
2021/11/04 00:41:50;;;;;;;4.10;2.30;;;13.10;99.90;;;;;;4995765;28;20197;-92
2021/11/04 00:44:22;;;;;;;5.10;2.27;;;13.10;99.90;;;;;;5000094;28;20205;-93
2021/11/04 00:46:53;;;;;;;5.07;2.27;;;13.10;99.90;;;;;;4998480;28;20207;-92
2021/11/04 00:49:25;;;;;;;4.20;2.07;;;13.00;99.90;;;;;;4991207;28;20205;-92
2021/11/04 00:51:59;;;;;;;5.13;2.47;;;13.00;99.90;;;;;;4978160;28;20294;-93
2021/11/04 00:54:34;;;;;;;4.07;2.23;;;13.00;99.90;;;;;;5156713;23;20574;-92
2021/11/04 00:57:07;;;;;;;3.20;2.27;;;13.00;99.90;;;;;;5025735;28;20241;-90
2021/11/04 00:59:39;;;;;;;5.40;2.00;;;12.90;99.90;;;;;;5028789;28;20208;-92
2021/11/04 01:02:13;;;;;;;4.70;2.10;;;12.90;99.90;;;;;;5031129;28;20197;-92
2021/11/04 01:04:46;;;;;;;6.17;1.80;;;12.90;99.90;;;;;;5032845;28;20213;-92
2021/11/04 01:07:18;;;;;;;5.23;2.30;;;12.90;99.90;;;;;;5032141;28;20236;-94
2021/11/04 01:09:54;;;;;;;3.63;2.03;;;12.80;99.90;;;;;;5020853;28;20568;-91
2021/11/04 01:12:25;;;;;;;3.90;1.90;;;12.80;99.90;;;;;;5020503;28;20220;-92
2021/11/04 01:14:57;;;;;;;7.27;2.30;;;12.90;99.90;;;;;;5020954;28;20245;-93
2021/11/04 01:17:31;;;;;;;6.50;2.00;;;12.90;99.90;;;;;;5019429;28;20252;-92
2021/11/04 01:20:03;;;;;;;2.90;1.77;;;12.80;99.90;;;;;;5020411;28;20206;-92
2021/11/04 01:22:34;;;;;;;3.77;1.50;;;12.90;99.90;;;;;;5019673;28;20213;-93
2021/11/04 01:25:09;;;;;;;3.80;1.97;;;12.90;99.90;;;;;;5027340;28;20682;-93
2021/11/04 01:27:41;;;;;;;3.97;1.93;;;12.80;99.90;;;;;;5020833;28;20205;-93
2021/11/04 01:30:14;;;;;;;3.37;2.07;;;12.80;99.90;;;;;;5032095;28;20281;-91
2021/11/04 01:32:54;;;;;;;3.30;1.70;;;12.80;99.90;;;;;;5030589;28;20228;-93
2021/11/04 01:35:25;;;;;;;4.27;1.97;;;12.80;99.90;;;;;;5023663;28;20296;-93
2021/11/04 01:37:58;;;;;;;3.23;2.00;;;12.80;99.90;;;;;;5023162;28;20230;-93
2021/11/04 01:40:34;;;;;;;5.53;2.07;;;12.70;99.90;;;;;;5024868;28;20205;-92
2021/11/04 01:43:06;;;;;;;3.13;1.90;;;12.80;99.90;;;;;;5038511;28;20311;-93
2021/11/04 01:45:38;;;;;;;3.77;2.00;;;12.80;99.90;;;;;;5034459;28;20217;-91
2021/11/04 01:48:11;;;;;;;4.73;2.07;;;12.70;99.90;;;;;;5054326;28;20209;-91
2021/11/04 01:50:45;;;;;;;4.60;2.13;;;12.70;99.90;;;;;;5039472;28;20257;-92
2021/11/04 01:53:21;;;;;;;3.23;2.30;;;12.70;99.90;;;;;;5066447;28;20247;-92
2021/11/04 01:55:55;;;;;;;4.33;2.13;;;12.70;99.90;;;;;;5073261;28;20212;-92
2021/11/04 01:58:27;;;;;;;5.33;2.03;;;12.70;99.90;;;;;;5058640;28;20232;-93
2021/11/04 02:01:00;;;;;;;3.67;2.00;;;12.70;99.90;;;;;;5053043;28;20213;-93
2021/11/04 02:03:36;;;;;;;4.80;2.33;;;12.60;99.90;;;;;;5030541;28;20210;-93
2021/11/04 02:06:20;;;;;;;2.77;2.23;;;12.70;99.90;;;;;;5031774;28;20209;-93
2021/11/04 02:11:43;;;;;;;4.57;2.27;;;12.70;99.90;;;;;;5109345;23;20249;-93
2021/11/04 02:14:20;;;;;;;3.40;1.90;;;12.80;99.90;;;;;;4995750;28;20205;-92
2021/11/04 02:16:55;;;;;;;2.40;1.73;;;12.70;99.90;;;;;;5014819;28;20672;-92
2021/11/04 02:19:42;;;;;;;3.40;2.20;;;12.70;99.90;;;;;;5016979;28;20218;-92
2021/11/04 02:25:10;;;;;;;2.43;2.00;;;12.80;99.90;;;;;;5706308;23;20242;-92
2021/11/04 02:27:45;;;;;;;2.43;1.80;;;12.80;99.90;;;;;;5014837;28;20214;-92
2021/11/04 02:30:18;;;;;;;3.53;1.80;;;12.80;99.90;;;;;;5015862;28;20186;-92
2021/11/04 02:32:51;;;;;;;5.50;2.20;;;12.80;99.90;;;;;;5015245;28;20261;-93
2021/11/04 02:37:56;;;;;;;3.93;2.23;;;12.80;99.90;;;;;;4999804;28;20285;-92
2021/11/04 02:40:31;;;;;;;4.70;2.27;;;12.80;99.90;;;;;;4997473;28;20610;-93
2021/11/04 02:43:04;;;;;;;2.83;2.00;;;12.70;99.90;;;;;;5005718;28;20241;-92
2021/11/04 02:45:36;;;;;;;9.63;3.47;;;12.70;99.90;;;;;;5007438;28;20199;-92
2021/11/04 02:48:08;;;;;;;2.77;2.20;;;12.60;99.90;;;;;;4987958;28;20210;-91
2021/11/04 02:50:39;;;;;;;5.83;2.87;;;12.60;99.90;;;;;;5001184;28;20286;-92
2021/11/04 02:53:11;;;;;;;11.23;2.60;;;12.60;99.90;;;;;;5006179;28;20285;-92
2021/11/04 02:55:46;;;;;;;8.17;2.30;;;12.60;99.90;;;;;;5004218;28;20198;-92
2021/11/04 02:58:19;;;;;;;8.13;2.83;;;12.60;99.90;;;;;;5002513;28;20238;-91
2021/11/04 03:00:54;;;;;;;3.00;2.40;;;12.50;99.90;;;;;;4997757;28;20242;-91
2021/11/04 03:03:27;;;;;;;5.67;2.53;;;12.40;99.90;;;;;;5006036;28;20228;-93
2021/11/04 03:05:59;;;;;;;3.27;2.00;;;12.50;99.90;;;;;;5012552;28;20190;-91
2021/11/04 03:08:32;;;;;;;7.47;2.37;;;12.50;99.90;;;;;;5012099;28;20206;-92
2021/11/04 03:11:06;;;;;;;3.67;2.30;;;12.50;99.90;;;;;;5016126;28;21461;-90
2021/11/04 03:13:52;;;;;;;3.37;2.70;;;12.50;99.90;;;;;;4992357;28;20218;-91
2021/11/04 03:16:25;;;;;;;5.17;2.30;;;12.40;99.90;;;;;;4997483;28;20206;-92
2021/11/04 03:18:58;;;;;;;4.37;2.40;;;12.50;99.90;;;;;;4998534;28;20240;-92
2021/11/04 03:21:31;;;;;;;3.73;2.23;;;12.50;99.90;;;;;;5003869;28;20190;-91
2021/11/04 03:24:04;;;;;;;10.63;8.70;;;12.40;99.90;;;;;;5002873;28;20206;-92
2021/11/04 03:26:42;;;;;;;7.07;3.83;;;12.30;99.90;;;;;;4988928;28;20214;-91
2021/11/04 03:29:15;;;;;;;6.93;3.00;;;12.30;99.90;;;;;;4994858;28;20297;-91
2021/11/04 03:31:48;;;;;;;5.50;3.07;;;12.20;99.90;;;;;;4985225;28;20206;-92
2021/11/04 03:34:20;;;;;;;5.70;3.10;;;12.20;99.90;;;;;;5005315;28;20190;-91
2021/11/04 03:44:56;;;;;;;7.43;3.20;;;12.10;99.90;;;;;;4992134;28;20616;-92
2021/11/04 03:47:34;;;;;;;7.03;3.50;;;12.10;99.90;;;;;;4992501;28;20210;-91
2021/11/04 03:50:08;;;;;;;6.23;3.63;;;12.10;99.90;;;;;;4992358;28;20202;-92
2021/11/04 03:52:42;;;;;;;10.73;3.70;;;12.10;99.90;;;;;;4992958;28;20210;-91
2021/11/04 03:55:17;;;;;;;8.07;4.20;;;12.10;99.90;;;;;;4988594;28;20218;-91
2021/11/04 03:57:56;;;;;;;5.97;3.37;;;12.00;99.90;;;;;;4996876;28;20199;-92
2021/11/04 04:00:28;;;;;;;15.43;4.10;;;12.10;99.90;;;;;;4994064;28;20235;-92
2021/11/04 04:03:00;;;;;;;14.23;4.23;;;12.10;99.90;;;;;;5059184;23;20317;-90
2021/11/04 04:05:34;;;;;;;11.50;4.10;;;12.10;99.90;;;;;;5031228;28;20202;-92
2021/11/04 04:08:06;;;;;;;9.67;3.10;;;12.10;99.90;;;;;;5034889;28;20241;-91
2021/11/04 04:10:40;;;;;;;23.93;4.17;;;12.10;99.90;;;;;;5031762;28;20209;-92
2021/11/04 04:13:14;;;;;;;10.27;5.00;;;12.20;99.90;;;;;;5033704;28;20224;-92
2021/11/04 04:15:49;;;;;;;9.73;6.67;;;12.10;99.90;;;;;;5036862;28;20205;-91
2021/11/04 04:18:23;;;;;;;15.27;9.70;;;12.10;99.90;;;;;;5037930;28;20209;-92
2021/11/04 04:20:56;;;;;;;20.20;6.70;;;12.20;99.90;;;;;;5029122;28;20218;-93
2021/11/04 04:23:27;;;;;;;15.37;6.50;;;12.20;99.90;;;;;;5033726;28;20202;-93
2021/11/04 04:25:59;;;;;;;5.13;3.67;;;12.10;99.90;;;;;;5013807;28;20221;-91
2021/11/04 04:28:34;;;;;;;7.10;3.20;;;12.10;99.90;;;;;;5019966;28;20206;-92
2021/11/04 04:31:09;;;;;;;15.70;3.30;;;12.20;99.90;;;;;;5033793;28;20206;-92
2021/11/04 04:33:41;;;;;;;4.43;3.40;;;12.20;99.90;;;;;;5034212;28;20241;-93
2021/11/04 04:36:14;;;;;;;11.27;4.00;;;12.10;99.90;;;;;;5033484;28;20205;-90
2021/11/04 04:38:49;;;;;;;6.13;3.43;;;12.10;99.90;;;;;;5034270;28;20221;-90
2021/11/04 04:41:21;;;;;;;6.10;3.80;;;12.10;99.90;;;;;;5033046;28;20614;-92
2021/11/04 04:43:56;;;;;;;7.40;3.67;;;12.10;99.90;;;;;;5034780;28;20225;-92
2021/11/04 04:46:27;;;;;;;7.23;4.10;;;12.10;99.90;;;;;;5029084;28;20209;-93
2021/11/04 04:48:58;;;;;;;12.53;4.23;;;12.10;99.90;;;;;;5021387;28;20206;-91
2021/11/04 04:51:30;;;;;;;5.40;3.93;;;12.10;99.90;;;;;;5028392;28;20218;-92
2021/11/04 04:54:02;;;;;;;9.67;4.37;;;12.10;99.90;;;;;;5021143;28;20216;-91
2021/11/04 04:56:33;;;;;;;5.83;3.73;;;12.10;99.90;;;;;;5020626;28;20204;-92
2021/11/04 04:59:07;;;;;;;6.57;4.00;;;12.10;99.90;;;;;;5025562;28;20257;-92
2021/11/04 05:01:38;;;;;;;7.07;4.20;;;12.10;99.90;;;;;;5026295;28;20209;-93
2021/11/04 05:04:10;;;;;;;4.47;3.83;;;12.10;99.90;;;;;;5019613;28;20332;-92
2021/11/04 05:06:41;;;;;;;4.17;3.73;;;12.10;99.90;;;;;;5020644;28;20245;-91
2021/11/04 05:09:12;;;;;;;6.17;3.60;;;12.10;99.90;;;;;;5021718;28;20217;-93
2021/11/04 05:11:44;;;;;;;8.60;3.37;;;12.10;99.90;;;;;;5029141;28;20205;-92
2021/11/04 05:14:18;;;;;;;6.50;3.27;;;12.10;99.90;;;;;;5038418;28;20189;-92
2021/11/04 05:16:50;;;;;;;4.17;3.00;;;12.10;99.90;;;;;;5037987;28;20217;-94
2021/11/04 05:19:23;;;;;;;3.97;3.10;;;12.10;99.90;;;;;;5035536;28;20230;-93
2021/11/04 05:21:55;;;;;;;5.13;2.60;;;12.10;99.90;;;;;;5036547;28;20201;-93
2021/11/04 05:24:28;;;;;;;2.63;2.20;;;12.10;99.90;;;;;;5033969;28;20214;-93
2021/11/04 05:27:00;;;;;;;3.63;2.40;;;12.10;99.90;;;;;;5021322;28;20197;-91
2021/11/04 05:29:34;;;;;;;9.77;2.33;;;12.10;99.90;;;;;;5038592;28;20209;-93
2021/11/04 05:32:07;;;;;;;5.17;2.17;;;12.20;99.90;;;;;;5041043;28;20209;-92
2021/11/04 05:34:40;;;;;;;2.20;2.00;;;12.20;99.90;;;;;;5048261;22;20707;-92
2021/11/04 05:37:11;;;;;;;2.07;1.60;;;12.10;99.90;;;;;;5003145;28;20226;-92
2021/11/04 05:39:43;;;;;;;5.10;2.33;;;12.10;99.90;;;;;;4984682;28;20250;-92
2021/11/04 05:42:15;;;;;;;4.80;2.07;;;12.10;99.90;;;;;;4982934;28;20242;-90
2021/11/04 05:44:50;;;;;;;3.53;2.30;;;12.10;99.90;;;;;;5003340;28;20273;-90
2021/11/04 05:47:22;;;;;;;3.07;2.00;;;12.00;99.90;;;;;;5002155;28;20332;-91
2021/11/04 05:49:53;;;;;;;3.57;2.13;;;12.00;99.90;;;;;;5006307;28;20233;-91
2021/11/04 05:52:26;;;;;;;3.03;2.07;;;12.00;99.90;;;;;;5005197;28;20655;-92
2021/11/04 05:55:01;;;;;;;4.67;2.10;;;12.00;99.90;;;;;;4984646;28;20202;-92
2021/11/04 05:57:32;;;;;;;3.10;1.73;;;12.00;99.90;;;;;;4999785;28;20249;-92
2021/11/04 06:00:09;;;;;;;2.87;1.93;;;12.00;99.90;;;;;;5017848;28;20588;-92
2021/11/04 06:02:41;;;;;;;2.37;1.80;;;12.00;99.90;;;;;;5008349;28;20546;-93
2021/11/04 06:05:12;;;;;;;2.47;1.90;;;12.00;99.90;;;;;;4983118;28;20225;-92
2021/11/04 06:07:44;;;;;;;1.83;1.60;;;12.00;99.90;;;;;;5002832;28;20321;-92
2021/11/04 06:10:16;;;;;;;3.33;1.73;;;12.00;99.90;;;;;;5002432;28;20210;-91
2021/11/04 06:12:49;;;;;;;3.13;1.90;;;12.00;99.90;;;;;;4995872;28;20265;-93
2021/11/04 06:15:23;;;;;;;2.00;1.77;;;11.90;99.90;;;;;;4999800;28;20210;-92
2021/11/04 06:17:54;;;;;;;2.63;2.03;;;11.90;99.90;;;;;;4999978;28;20663;-93
2021/11/04 06:20:26;;;;;;;2.77;1.60;;;11.90;99.90;;;;;;4999970;28;20250;-92
2021/11/04 06:22:57;;;;;;;1.90;1.70;;;11.90;99.90;;;;;;5000841;28;20246;-92
2021/11/04 06:25:32;;;;;;;2.07;1.77;;;11.90;99.90;;;;;;5001129;28;20207;-92
2021/11/04 06:28:07;;;;;;;2.57;2.10;;;11.90;99.90;;;;;;4996486;28;20228;-93
2021/11/04 06:30:40;;;;;;;1.90;1.70;;;11.90;99.90;;;;;;5016526;28;20203;-92
2021/11/04 06:33:11;;;;;;;5.10;2.03;;;11.90;99.90;;;;;;4999713;28;20201;-91
2021/11/04 06:35:42;;;;;;;2.33;2.13;;;11.80;99.90;;;;;;4998853;28;20209;-92
2021/11/04 06:38:15;;;;;;;2.00;1.77;;;11.90;99.90;;;;;;4999498;28;20671;-92
2021/11/04 06:40:48;;;;;;;5.53;1.87;;;11.80;99.90;;;;;;4998714;28;20297;-91
2021/11/04 06:43:20;;;;;;;3.30;1.57;;;11.80;99.90;;;;;;4999146;28;20225;-92
2021/11/04 06:45:57;;;;;;;2.20;2.00;;;11.80;99.90;;;;;;4999069;28;20225;-92
2021/11/04 06:48:33;;;;;;;2.37;1.80;;;11.80;99.90;;;;;;5000258;28;20234;-93
2021/11/04 06:51:10;;;;;;;2.73;2.20;;;11.80;99.90;;;;;;4967211;28;20667;-92
2021/11/04 06:53:47;;;;;;;2.60;2.40;;;11.70;99.90;;;;;;5000198;28;20221;-92
2021/11/04 06:56:21;;;;;;;2.87;1.93;;;11.70;99.90;;;;;;4999527;28;20640;-92
2021/11/04 06:58:55;;;;;;;1.80;1.70;;;11.80;99.90;;;;;;4982942;28;20202;-93
2021/11/04 07:01:30;;;;;;;1.93;1.70;;;11.70;99.90;;;;;;5000000;28;20249;-93
2021/11/04 07:04:11;;;;;;;4.00;1.90;;;11.70;99.90;;;;;;4997120;28;20224;-92
2021/11/04 07:06:46;;;;;;;4.33;2.20;;;11.70;99.90;;;;;;4999223;28;20206;-93
2021/11/04 07:09:18;;;;;;;2.33;1.90;;;11.70;99.90;;;;;;5003783;28;20210;-94
2021/11/04 07:11:50;;;;;;;1.70;1.60;;;11.70;99.90;;;;;;5002447;28;20300;-93
2021/11/04 07:14:27;;;;;;;3.20;2.00;;;11.70;99.90;;;;;;4999694;28;20225;-93
2021/11/04 07:17:04;;;;;;;3.03;1.90;;;11.70;99.90;;;;;;4982876;28;20249;-93
2021/11/04 07:19:39;;;;;;;2.07;1.70;;;11.70;99.90;;;;;;4999694;28;20223;-93
2021/11/04 07:22:20;;;;;;;1.93;1.60;;;11.70;99.90;;;;;;5021939;28;20233;-93
2021/11/04 07:25:03;;;;;;;1.67;1.57;;;11.70;99.90;;;;;;5002189;28;20276;-93
2021/11/04 07:27:39;;;;;;;3.00;1.80;;;11.70;99.90;;;;;;5016194;28;20248;-93
2021/11/04 07:30:12;;;;;;;1.60;1.50;;;11.70;99.90;;;;;;5014883;28;20189;-94
2021/11/04 07:33:03;;;;;;;2.77;1.90;;;11.60;99.90;;;;;;5005787;28;20232;-93
2021/11/04 07:35:39;;;;;;;2.17;1.60;;;11.60;99.90;;;;;;4999584;28;20244;-93
2021/11/04 07:38:17;;;;;;;2.10;1.80;;;11.70;99.90;;;;;;4987646;28;20210;-92
2021/11/04 07:40:51;;;;;;;2.37;1.83;;;11.70;99.90;;;;;;4998393;28;20234;-93
2021/11/04 07:43:23;;;;;;;1.73;1.60;;;11.70;99.90;;;;;;4998096;28;20285;-92
2021/11/04 07:45:55;;;;;;;2.40;2.00;;;11.70;99.90;;;;;;4997836;28;20202;-92
2021/11/04 07:48:30;;;;;;;3.10;1.83;;;11.70;99.90;;;;;;4997686;28;20244;-92
2021/11/04 07:51:03;;;;;;;2.50;1.90;;;11.80;99.90;;;;;;4998845;28;20234;-94
2021/11/04 07:53:35;;;;;;;1.77;1.67;;;11.80;99.90;;;;;;4998893;28;20682;-92
2021/11/04 07:56:08;;;;;;;7.77;2.40;;;11.80;99.90;;;;;;4997389;28;20214;-93
2021/11/04 07:58:40;;;;;;;2.67;2.10;;;11.80;99.90;;;;;;5010398;28;20267;-92
2021/11/04 08:01:13;;;;;;;2.50;2.30;;;11.80;99.90;;;;;;4990249;28;20332;-92
2021/11/04 08:03:53;;;;;;;3.07;2.40;;;11.80;99.90;;;;;;4999077;28;20563;-92
2021/11/04 08:06:25;;;;;;;2.40;2.20;;;11.80;99.90;;;;;;4979112;28;20254;-92
2021/11/04 08:08:57;;;;;;;2.37;1.97;;;11.80;99.90;;;;;;4992873;28;20206;-92
2021/11/04 08:11:31;;;;;;;2.77;2.37;;;11.80;99.90;;;;;;4998563;28;20202;-93
2021/11/04 08:14:02;;;;;;;2.63;2.00;;;11.80;99.90;;;;;;4999899;28;20313;-93
2021/11/04 08:16:34;;;;;;;3.73;2.47;;;11.80;99.90;;;;;;4982732;28;20229;-92
2021/11/04 08:19:08;;;;;;;4.10;2.43;;;11.80;99.90;;;;;;4998977;28;20213;-91
2021/11/04 08:21:40;;;;;;;3.13;2.50;;;11.90;99.90;;;;;;5001016;28;20260;-90
2021/11/04 08:24:11;;;;;;;3.60;2.37;;;11.90;99.90;;;;;;5001750;28;20205;-92
2021/11/04 08:26:44;;;;;;;2.77;2.07;;;11.90;99.90;;;;;;4985550;28;20214;-92
2021/11/04 08:29:16;;;;;;;2.60;2.40;;;12.00;99.90;;;;;;4998770;28;20199;-92
2021/11/04 08:31:48;;;;;;;3.50;2.67;;;12.00;99.90;;;;;;4992259;28;20199;-93
2021/11/04 08:34:22;;;;;;;7.83;2.53;;;12.10;99.90;;;;;;4999745;28;20641;-91
2021/11/04 08:36:53;;;;;;;4.43;2.93;;;12.00;99.90;;;;;;4996565;28;20226;-91
2021/11/04 08:39:26;;;;;;;6.87;2.57;;;12.00;99.90;;;;;;4996191;28;20237;-91
2021/11/04 08:41:59;;;;;;;9.37;2.90;;;12.00;99.90;;;;;;5018124;28;20228;-91
2021/11/04 08:44:30;;;;;;;3.83;3.00;;;12.00;99.90;;;;;;5019742;28;20194;-91
2021/11/04 08:47:02;;;;;;;5.17;3.03;;;11.90;99.90;;;;;;5017735;28;20238;-92
2021/11/04 08:49:38;;;;;;;6.90;2.70;;;11.90;99.90;;;;;;4998219;28;20237;-92
2021/11/04 08:52:12;;;;;;;17.30;2.63;;;11.90;99.90;;;;;;5011656;28;20209;-94
2021/11/04 08:54:48;;;;;;;7.90;2.90;;;11.90;99.90;;;;;;5007034;28;20280;-92
2021/11/04 08:57:21;;;;;;;5.10;2.83;;;11.80;99.90;;;;;;5008235;28;20212;-91
2021/11/04 08:59:54;;;;;;;5.87;2.53;;;11.80;99.90;;;;;;5016748;28;20238;-93
2021/11/04 09:02:26;;;;;;;3.83;2.50;;;11.80;99.90;;;;;;5016251;28;20233;-92
2021/11/04 09:05:02;;;;;;;4.60;2.63;;;11.80;99.90;;;;;;5002779;28;20570;-94
2021/11/04 09:07:37;;;;;;;3.40;2.60;;;11.80;99.90;;;;;;4996015;28;20305;-91
2021/11/04 09:10:10;;;;;;;4.80;2.50;;;11.80;99.90;;;;;;5000797;28;20569;-91
2021/11/04 09:12:42;;;;;;;2.53;2.33;;;11.80;99.90;;;;;;5001332;28;20227;-90
2021/11/04 09:15:15;;;;;;;4.97;2.90;;;11.80;99.90;;;;;;4983127;28;20234;-91
2021/11/04 09:17:47;;;;;;;3.23;2.87;;;11.80;99.90;;;;;;4983890;28;20269;-91
2021/11/04 09:20:22;;;;;;;3.13;2.33;;;11.80;99.90;;;;;;5000271;28;20225;-91
2021/11/04 09:22:53;;;;;;;5.73;2.60;;;11.80;99.90;;;;;;4984234;28;20613;-93
2021/11/04 09:25:32;;;;;;;2.37;2.17;;;11.80;99.90;;;;;;5001510;28;20206;-92
2021/11/04 09:28:04;;;;;;;2.60;2.30;;;11.80;99.90;;;;;;5004907;28;20278;-92
2021/11/04 09:30:36;;;;;;;2.87;2.27;;;11.80;99.90;;;;;;5001136;28;20238;-92
2021/11/04 09:33:08;;;;;;;3.60;2.10;;;11.90;99.90;;;;;;5012007;28;20191;-91
2021/11/04 09:35:45;;;;;;;4.97;2.67;;;11.90;99.90;;;;;;5015053;28;20220;-92
2021/11/04 09:38:16;;;;;;;4.90;2.23;;;11.90;99.90;;;;;;5016113;28;20210;-91
2021/11/04 09:40:47;;;;;;;3.60;2.40;;;11.90;99.90;;;;;;4993220;28;20261;-92
2021/11/04 09:43:23;;;;;;;6.00;2.60;;;11.90;99.90;;;;;;5002804;28;20662;-91
2021/11/04 09:46:00;;;;;;;4.17;2.50;;;12.00;99.90;;;;;;5002926;28;20616;-92
2021/11/04 09:48:33;;;;;;;2.77;2.23;;;12.00;99.90;;;;;;5001355;28;20210;-93
2021/11/04 09:51:08;;;;;;;3.27;2.67;;;12.00;99.90;;;;;;5001360;28;20210;-91
2021/11/04 09:53:41;;;;;;;3.57;2.77;;;11.90;99.90;;;;;;5001226;28;20294;-93
2021/11/04 09:56:17;;;;;;;3.70;2.80;;;11.90;99.90;;;;;;4998657;28;20237;-92
2021/11/04 09:58:50;;;;;;;4.40;2.67;;;11.90;99.90;;;;;;5000366;28;20244;-92
2021/11/04 10:01:32;;;;;;;3.27;2.60;;;12.00;99.90;;;;;;5000323;28;20213;-94
2021/11/04 10:04:06;;;;;;;2.93;2.70;;;12.00;99.90;;;;;;5000296;28;20202;-93
2021/11/04 10:06:40;;;;;;;2.80;2.60;;;12.00;99.90;;;;;;4998571;28;20208;-91
2021/11/04 10:09:13;;;;;;;3.63;2.33;;;12.00;99.90;;;;;;4979582;28;20244;-91
2021/11/04 10:11:48;;;;;;;3.00;2.13;;;12.00;99.90;;;;;;4980869;28;20214;-91
2021/11/04 10:14:20;;;;;;;2.17;1.93;;;12.00;99.90;;;;;;5000027;28;20213;-92
2021/11/04 10:16:51;;;;;;;2.50;2.23;;;12.10;99.90;;;;;;5000669;28;20210;-93
2021/11/04 10:19:23;;;;;;;2.63;2.00;;;12.10;99.90;;;;;;5002492;28;20674;-92
2021/11/04 10:21:58;;;;;;;2.13;1.93;;;12.10;99.90;;;;;;5000738;28;20222;-91
2021/11/04 10:24:34;;;;;;;2.57;2.37;;;12.20;99.90;;;;;;4999622;28;20620;-91
2021/11/04 10:27:05;;;;;;;2.47;2.27;;;12.20;99.90;;;;;;4998723;28;20234;-92
2021/11/04 10:29:39;;;;;;;1.80;1.70;;;12.20;99.90;;;;;;5003257;28;20237;-92
2021/11/04 10:32:10;;;;;;;2.97;1.90;;;12.20;99.90;;;;;;4968762;28;20249;-91
2021/11/04 10:34:42;;;;;;;4.27;1.90;;;12.30;99.90;;;;;;4982686;28;20233;-92
2021/11/04 10:37:19;;;;;;;3.17;2.03;;;12.30;99.90;;;;;;4998764;28;20575;-92
2021/11/04 10:39:51;;;;;;;2.30;2.10;;;12.30;99.90;;;;;;4999886;28;20229;-91
2021/11/04 10:42:23;;;;;;;2.93;2.23;;;12.30;99.90;;;;;;4997354;28;20234;-91
2021/11/04 10:44:54;;;;;;;2.67;2.27;;;12.30;99.90;;;;;;5000758;28;20269;-93
2021/11/04 10:47:25;;;;;;;3.00;2.50;;;12.20;99.90;;;;;;4992495;28;20214;-92
2021/11/04 10:49:57;;;;;;;2.53;2.33;;;12.20;99.90;;;;;;5009491;28;20269;-92
2021/11/04 10:52:31;;;;;;;3.00;1.87;;;12.10;99.90;;;;;;4998330;28;20276;-92
2021/11/04 10:55:11;;;;;;;2.60;2.13;;;12.10;99.90;;;;;;4998601;28;20641;-92
2021/11/04 10:57:44;;;;;;;2.30;2.10;;;12.00;99.90;;;;;;4998451;28;20214;-91
2021/11/04 11:00:18;;;;;;;2.30;1.83;;;11.90;99.90;;;;;;4997264;28;20198;-91
2021/11/04 11:03:09;;;;;;;3.00;2.30;;;11.80;99.90;;;;;;4997566;28;20242;-92
2021/11/04 11:05:43;;;;;;;3.43;2.27;;;11.60;99.90;;;;;;4996245;28;20206;-93
2021/11/04 11:08:17;;;;;;;5.17;2.30;;;11.60;99.90;;;;;;4983893;28;20205;-92
2021/11/04 11:10:48;;;;;;;4.47;2.63;;;11.60;99.90;;;;;;4988855;28;20213;-92
2021/11/04 11:13:26;;;;;;;2.90;2.43;;;11.60;99.90;;;;;;5017467;28;20284;-91
2021/11/04 11:15:58;;;;;;;4.63;2.67;;;11.60;99.90;;;;;;5005480;28;20237;-91
2021/11/04 11:18:33;;;;;;;4.37;2.43;;;11.50;99.90;;;;;;5001523;28;20214;-90
2021/11/04 11:21:04;;;;;;;2.47;2.17;;;11.50;99.90;;;;;;5000367;28;20570;-92
2021/11/04 11:23:39;;;;;;;3.40;2.60;;;11.50;99.90;;;;;;5003563;28;20305;-92
2021/11/04 11:26:15;;;;;;;3.97;2.27;;;11.40;99.90;;;;;;5000959;28;20208;-92
2021/11/04 11:28:47;;;;;;;3.73;2.40;;;11.40;99.90;;;;;;4997038;28;20560;-92
2021/11/04 11:31:25;;;;;;;4.13;2.10;;;11.40;99.90;;;;;;4997466;28;20261;-92
2021/11/04 11:34:28;;;;;;;2.20;2.00;;;11.40;99.90;;;;;;4981852;28;20210;-92
2021/11/04 11:37:16;;;;;;;3.27;2.10;;;11.50;99.90;;;;;;5002519;28;20213;-93
2021/11/04 11:40:13;;;;;;;3.83;2.30;;;11.50;99.90;;;;;;5017776;28;20670;-92
2021/11/04 11:42:59;;;;;;;2.57;2.37;;;11.50;99.90;;;;;;5000189;28;20275;-91
2021/11/04 11:45:32;;;;;;;3.13;2.30;;;11.50;99.90;;;;;;5014432;28;20301;-92
2021/11/04 11:48:20;;;;;;;2.27;2.07;;;11.60;99.90;;;;;;5001210;28;20233;-91
2021/11/04 11:50:53;;;;;;;3.27;2.10;;;11.60;99.90;;;;;;5015880;28;20225;-92
2021/11/04 11:53:34;;;;;;;3.43;2.67;;;11.60;99.90;;;;;;5014499;28;20202;-93
2021/11/04 11:56:07;;;;;;;2.47;2.20;;;11.60;99.90;;;;;;4992759;28;20197;-91
2021/11/04 11:58:48;;;;;;;2.17;1.97;;;11.60;99.90;;;;;;5004260;28;20202;-92
2021/11/04 12:01:21;;;;;;;2.43;1.97;;;11.70;99.90;;;;;;4997422;28;20206;-92
2021/11/04 12:03:54;;;;;;;2.20;2.00;;;11.70;99.90;;;;;;5004209;28;20237;-91
2021/11/04 12:06:58;;;;;;;1.97;1.77;;;11.70;99.90;;;;;;5001693;28;20659;-93
2021/11/04 12:09:49;;;;;;;2.00;1.80;;;11.70;99.90;;;;;;5018751;28;20263;-91
2021/11/04 12:12:46;;;;;;;2.50;1.80;;;11.70;99.90;;;;;;5013427;28;20215;-91
2021/11/04 12:15:19;;;;;;;1.87;1.53;;;11.70;99.90;;;;;;5002753;28;20221;-92
2021/11/04 12:18:18;;;;;;;1.83;1.60;;;11.70;99.90;;;;;;5000630;28;20214;-92
2021/11/04 12:20:54;;;;;;;2.13;1.90;;;11.70;99.90;;;;;;4983385;28;20211;-92
2021/11/04 12:23:47;;;;;;;2.13;1.63;;;11.70;99.90;;;;;;5002596;28;20242;-92
2021/11/04 12:26:34;;;;;;;5.63;2.10;;;11.70;99.90;;;;;;4985091;28;20213;-92
2021/11/04 12:29:09;;;;;;;2.53;1.90;;;11.70;99.90;;;;;;5001213;28;20769;-93
2021/11/04 12:31:44;;;;;;;2.20;2.00;;;11.70;99.90;;;;;;4999841;28;20272;-92
2021/11/04 12:34:22;;;;;;;2.03;1.80;;;11.70;99.90;;;;;;5002261;28;20230;-91
2021/11/04 12:36:56;;;;;;;3.87;1.90;;;11.70;99.90;;;;;;4999257;28;20210;-92
2021/11/04 12:39:30;;;;;;;2.17;1.97;;;11.70;99.90;;;;;;5000397;28;20207;-92
2021/11/04 12:42:02;;;;;;;2.63;1.67;;;11.70;99.90;;;;;;5000270;28;20262;-93
2021/11/04 12:44:37;;;;;;;3.27;1.90;;;11.70;99.90;;;;;;4999835;28;20266;-92
2021/11/04 12:47:12;;;;;;;2.20;1.93;;;11.70;99.90;;;;;;4999295;28;20708;-92
2021/11/04 12:49:45;;;;;;;4.07;1.90;;;11.70;99.90;;;;;;4998708;28;20261;-93
2021/11/04 12:52:17;;;;;;;2.93;2.00;;;11.60;99.90;;;;;;5000426;28;20210;-92
2021/11/04 12:54:51;;;;;;;2.43;1.67;;;11.60;99.90;;;;;;4999871;28;20586;-92
2021/11/04 12:57:24;;;;;;;2.10;1.90;;;11.50;99.90;;;;;;5013481;28;20684;-92
2021/11/04 13:00:02;;;;;;;2.03;1.80;;;11.40;99.90;;;;;;5020299;28;20240;-92
2021/11/04 13:02:36;;;;;;;3.43;1.40;;;11.40;99.90;;;;;;5020247;28;20213;-93
2021/11/04 13:05:17;;;;;;;1.90;1.77;;;11.40;99.90;;;;;;5015675;28;20289;-91
2021/11/04 13:07:54;;;;;;;1.57;1.43;;;11.40;99.90;;;;;;4983877;28;20210;-90
2021/11/04 13:10:31;;;;;;;2.03;1.70;;;11.30;99.90;;;;;;5010397;28;20306;-92
2021/11/04 13:13:05;;;;;;;2.07;1.60;;;11.30;99.90;;;;;;5010533;28;20214;-92
2021/11/04 13:15:40;;;;;;;2.27;1.57;;;11.30;99.90;;;;;;5000856;28;20313;-92
2021/11/04 13:18:14;;;;;;;1.93;1.70;;;11.30;99.90;;;;;;5010329;28;20213;-93
2021/11/04 13:20:49;;;;;;;2.83;1.57;;;11.20;99.90;;;;;;5259117;23;20245;-92
2021/11/04 13:23:23;;;;;;;2.03;1.70;;;11.20;99.90;;;;;;5018320;28;20244;-91
2021/11/04 13:25:57;;;;;;;4.13;1.90;;;11.20;99.90;;;;;;5019573;28;20209;-92
2021/11/04 13:28:32;;;;;;;2.23;1.93;;;11.30;99.90;;;;;;5022888;28;20259;-92
2021/11/04 13:31:22;;;;;;;1.87;1.63;;;11.30;99.90;;;;;;5022371;28;20209;-92
2021/11/04 13:34:05;;;;;;;1.87;1.47;;;11.30;99.90;;;;;;5022442;28;20237;-91
2021/11/04 13:36:37;;;;;;;2.77;1.77;;;11.40;99.90;;;;;;5019659;28;20214;-93
2021/11/04 13:39:13;;;;;;;2.53;1.97;;;11.40;99.90;;;;;;5020281;28;20213;-91